Time;durP1;ratioP1;P1;durP2;ratioP2;P2;SDS_P1;SDS_P2;PMS_P1;PMS_P2;Temp;Humidity;BMP_temperature;BMP_pressure;BME280_temperature;BME280_humidity;BME280_pressure;Samples;Min_cycle;Max_cycle;Signal;HPM_P1;HPM_P2
2023/03/09 00:02:38;;;;;;;6.88;2.90;;;;;;;;;;5096952;28;20072;-80
2023/03/09 00:05:11;;;;;;;8.40;3.03;;;;;;;;;;5099545;28;20063;-80
2023/03/09 00:07:43;;;;;;;7.03;2.92;;;;;;;;;;5082283;28;20044;-80
2023/03/09 00:10:12;;;;;;;10.68;3.72;;;;;;;;;;5065996;28;20050;-79
2023/03/09 00:12:40;;;;;;;6.50;3.03;;;;;;;;;;5099075;28;20042;-80
2023/03/09 00:15:37;;;;;;;7.22;3.30;;;;;;;;;;5098153;28;20474;-79
2023/03/09 00:18:04;;;;;;;7.22;3.05;;;;;;;;;;5097704;28;20037;-79
2023/03/09 00:20:34;;;;;;;7.25;3.33;;;;;;;;;;5099352;28;20039;-79
2023/03/09 00:23:08;;;;;;;5.25;2.75;;;;;;;;;;5098459;28;20032;-80
2023/03/09 00:25:40;;;;;;;6.93;3.17;;;;;;;;;;5079644;28;20036;-80
2023/03/09 00:28:12;;;;;;;6.30;3.05;;;;;;;;;;5097520;28;20084;-80
2023/03/09 00:30:40;;;;;;;7.95;2.85;;;;;;;;;;5099958;28;20433;-79
2023/03/09 00:33:08;;;;;;;5.85;2.53;;;;;;;;;;5062212;28;20052;-80
2023/03/09 00:35:38;;;;;;;5.70;3.03;;;;;;;;;;5080430;28;20088;-80
2023/03/09 00:38:06;;;;;;;8.30;2.47;;;;;;;;;;5080373;28;20032;-80
2023/03/09 00:40:40;;;;;;;7.15;3.47;;;;;;;;;;5081501;28;20029;-80
2023/03/09 00:43:32;;;;;;;7.50;3.15;;;;;;;;;;5081233;28;20031;-80
2023/03/09 00:46:50;;;;;;;11.88;3.03;;;;;;;;;;5098688;28;20031;-80
2023/03/09 00:49:22;;;;;;;4.50;2.95;;;;;;;;;;5088312;28;20511;-80
2023/03/09 00:51:50;;;;;;;6.18;2.78;;;;;;;;;;5098417;28;20071;-80
2023/03/09 00:54:18;;;;;;;7.55;3.08;;;;;;;;;;5081075;28;20047;-80
2023/03/09 00:56:46;;;;;;;11.50;3.10;;;;;;;;;;5080688;28;20040;-80
2023/03/09 00:59:42;;;;;;;7.35;3.38;;;;;;;;;;5100171;28;20051;-80
2023/03/09 01:02:10;;;;;;;4.93;3.15;;;;;;;;;;5099071;28;20123;-80
2023/03/09 01:04:38;;;;;;;5.18;3.00;;;;;;;;;;5078963;28;20487;-80
2023/03/09 01:07:06;;;;;;;7.07;3.35;;;;;;;;;;5080641;28;20062;-79
2023/03/09 01:09:43;;;;;;;5.75;3.15;;;;;;;;;;5093456;28;20047;-80
2023/03/09 01:12:37;;;;;;;5.50;2.53;;;;;;;;;;5098976;28;20437;-80
2023/03/09 01:15:13;;;;;;;6.35;2.78;;;;;;;;;;5096771;28;20498;-80
2023/03/09 01:17:42;;;;;;;6.30;2.90;;;;;;;;;;5097360;28;20104;-80
2023/03/09 01:20:11;;;;;;;5.72;2.97;;;;;;;;;;5080659;28;20046;-80
2023/03/09 01:23:09;;;;;;;8.93;2.95;;;;;;;;;;5097700;28;20070;-80
2023/03/09 01:25:36;;;;;;;5.25;2.60;;;;;;;;;;5080690;28;20088;-80
2023/03/09 01:28:04;;;;;;;4.25;2.28;;;;;;;;;;5097113;28;20043;-80
2023/03/09 01:30:32;;;;;;;5.90;2.80;;;;;;;;;;5078786;28;20040;-80
2023/03/09 01:33:04;;;;;;;10.05;2.80;;;;;;;;;;5077348;28;20028;-80
2023/03/09 01:35:32;;;;;;;8.38;3.03;;;;;;;;;;5083416;28;20051;-80
2023/03/09 01:38:02;;;;;;;5.10;2.72;;;;;;;;;;5100691;28;20036;-80
2023/03/09 01:40:31;;;;;;;4.80;2.55;;;;;;;;;;5083054;28;20036;-80
2023/03/09 01:43:01;;;;;;;6.63;2.60;;;;;;;;;;5082972;28;20564;-80
2023/03/09 01:45:28;;;;;;;5.55;2.67;;;;;;;;;;5082689;28;20085;-79
2023/03/09 01:47:58;;;;;;;5.20;2.45;;;;;;;;;;5071557;28;20464;-80
2023/03/09 01:50:34;;;;;;;5.72;2.60;;;;;;;;;;5097646;28;20488;-80
2023/03/09 01:53:10;;;;;;;5.70;2.80;;;;;;;;;;5102273;28;20046;-80
2023/03/09 01:56:02;;;;;;;4.45;2.42;;;;;;;;;;5099050;28;20040;-80
2023/03/09 01:59:01;;;;;;;5.70;2.55;;;;;;;;;;5081835;28;20059;-80
2023/03/09 02:01:52;;;;;;;4.45;2.40;;;;;;;;;;5069294;28;20024;-80
2023/03/09 02:04:28;;;;;;;6.45;2.30;;;;;;;;;;5065474;28;20047;-80
2023/03/09 02:07:23;;;;;;;5.82;2.72;;;;;;;;;;5085932;28;20054;-80
2023/03/09 02:10:46;;;;;;;5.85;2.80;;;;;;;;;;5099832;28;20040;-80
2023/03/09 02:13:21;;;;;;;6.00;2.70;;;;;;;;;;5084485;28;20039;-80
2023/03/09 02:15:50;;;;;;;7.38;2.63;;;;;;;;;;5080593;28;20043;-80
2023/03/09 02:18:43;;;;;;;5.95;2.65;;;;;;;;;;5064640;28;20039;-80
2023/03/09 02:21:38;;;;;;;6.10;2.90;;;;;;;;;;5100708;28;20067;-80
2023/03/09 02:24:23;;;;;;;9.90;3.20;;;;;;;;;;5089901;28;20043;-80
2023/03/09 02:27:21;;;;;;;4.22;2.63;;;;;;;;;;5100817;28;20586;-80
2023/03/09 02:29:51;;;;;;;5.45;3.03;;;;;;;;;;5075887;28;20069;-80
2023/03/09 02:32:18;;;;;;;8.02;3.28;;;;;;;;;;5082164;28;20384;-80
2023/03/09 02:34:47;;;;;;;6.40;3.08;;;;;;;;;;5082592;28;20076;-80
2023/03/09 02:37:33;;;;;;;6.30;2.80;;;;;;;;;;5082782;28;20044;-80
2023/03/09 02:40:10;;;;;;;7.72;3.05;;;;;;;;;;5064645;28;20039;-80
2023/03/09 02:42:45;;;;;;;6.15;3.13;;;;;;;;;;5091446;28;20159;-80
2023/03/09 02:48:39;;;;;;;6.65;3.58;;;;;;;;;;5081990;28;20044;-80
2023/03/09 02:51:07;;;;;;;5.97;2.80;;;;;;;;;;5082500;28;20038;-80
2023/03/09 02:53:40;;;;;;;7.38;2.83;;;;;;;;;;5082800;28;20047;-80
2023/03/09 02:56:09;;;;;;;5.15;2.63;;;;;;;;;;5064820;28;20036;-80
2023/03/09 02:58:42;;;;;;;6.75;3.30;;;;;;;;;;5099623;28;20046;-80
2023/03/09 03:01:10;;;;;;;6.07;3.17;;;;;;;;;;5082703;28;20041;-80
2023/03/09 03:03:38;;;;;;;5.25;2.90;;;;;;;;;;5080132;28;20044;-80
2023/03/09 03:06:06;;;;;;;5.53;3.03;;;;;;;;;;5081326;28;20048;-80
2023/03/09 03:08:40;;;;;;;7.18;3.05;;;;;;;;;;5072190;28;20143;-80
2023/03/09 03:11:32;;;;;;;5.50;2.90;;;;;;;;;;5099539;28;20586;-80
2023/03/09 03:14:02;;;;;;;6.60;2.97;;;;;;;;;;5080914;28;20044;-80
2023/03/09 03:16:33;;;;;;;5.80;3.33;;;;;;;;;;5081370;28;20383;-80
2023/03/09 03:19:03;;;;;;;8.52;3.33;;;;;;;;;;5082160;28;20044;-80
2023/03/09 03:21:35;;;;;;;5.28;2.85;;;;;;;;;;5081311;28;20126;-79
2023/03/09 03:24:26;;;;;;;5.75;3.17;;;;;;;;;;5098130;28;20038;-80
2023/03/09 03:27:24;;;;;;;8.15;2.78;;;;;;;;;;5081512;28;20034;-79
2023/03/09 03:29:52;;;;;;;6.68;3.22;;;;;;;;;;5079879;28;20047;-80
2023/03/09 03:32:20;;;;;;;5.90;3.13;;;;;;;;;;5080023;28;20118;-80
2023/03/09 03:34:48;;;;;;;9.13;3.55;;;;;;;;;;5079876;28;20050;-80
2023/03/09 03:37:17;;;;;;;7.35;3.88;;;;;;;;;;5081220;28;20071;-80
2023/03/09 03:39:51;;;;;;;6.78;3.35;;;;;;;;;;5080661;28;20044;-80
2023/03/09 03:42:18;;;;;;;8.45;3.45;;;;;;;;;;5095271;28;20530;-80
2023/03/09 03:44:52;;;;;;;10.68;3.50;;;;;;;;;;5081223;28;20154;-80
2023/03/09 03:47:24;;;;;;;8.98;3.60;;;;;;;;;;5096647;28;20118;-80
2023/03/09 03:49:52;;;;;;;8.52;3.42;;;;;;;;;;5081521;28;20063;-80
2023/03/09 03:52:20;;;;;;;6.20;2.88;;;;;;;;;;5081103;28;20043;-80
2023/03/09 03:54:51;;;;;;;9.43;3.22;;;;;;;;;;5081868;28;20040;-79
2023/03/09 03:57:22;;;;;;;10.60;3.00;;;;;;;;;;5065237;28;20043;-80
2023/03/09 03:59:54;;;;;;;8.63;3.70;;;;;;;;;;5064412;28;20051;-80
2023/03/09 04:02:27;;;;;;;6.47;3.30;;;;;;;;;;5064839;28;20043;-80
2023/03/09 04:04:56;;;;;;;9.93;3.42;;;;;;;;;;5080138;28;20078;-80
2023/03/09 04:07:48;;;;;;;9.68;3.55;;;;;;;;;;5097699;28;20415;-80
2023/03/09 04:10:16;;;;;;;8.38;3.03;;;;;;;;;;5071442;28;20056;-80
2023/03/09 04:12:46;;;;;;;8.05;3.40;;;;;;;;;;5080246;28;20032;-80
2023/03/09 04:15:14;;;;;;;10.60;3.75;;;;;;;;;;5075708;28;20046;-80
2023/03/09 04:17:42;;;;;;;9.05;4.30;;;;;;;;;;5078959;28;20040;-80
2023/03/09 04:20:11;;;;;;;8.82;4.10;;;;;;;;;;5098253;28;20427;-80
2023/03/09 04:22:47;;;;;;;7.10;3.55;;;;;;;;;;5080898;28;20035;-80
2023/03/09 04:25:16;;;;;;;11.23;3.83;;;;;;;;;;5080409;28;20054;-80
2023/03/09 04:27:44;;;;;;;7.35;3.50;;;;;;;;;;5056204;28;20048;-80
2023/03/09 04:30:20;;;;;;;5.72;3.15;;;;;;;;;;5079318;28;20040;-80
2023/03/09 04:32:49;;;;;;;10.65;3.28;;;;;;;;;;5098188;28;20113;-80
2023/03/09 04:35:22;;;;;;;8.02;4.10;;;;;;;;;;5081389;28;20101;-80
2023/03/09 04:37:51;;;;;;;10.68;3.45;;;;;;;;;;5078987;28;20052;-80
2023/03/09 04:40:20;;;;;;;16.23;4.00;;;;;;;;;;5097326;28;20050;-80
2023/03/09 04:42:50;;;;;;;9.45;4.15;;;;;;;;;;5081748;28;20155;-80
2023/03/09 04:45:18;;;;;;;9.38;4.60;;;;;;;;;;5080322;28;20040;-80
2023/03/09 04:48:10;;;;;;;7.13;3.80;;;;;;;;;;5097753;28;20479;-80
2023/03/09 04:50:38;;;;;;;9.90;4.22;;;;;;;;;;5080022;28;20055;-80
2023/03/09 04:53:06;;;;;;;10.52;3.83;;;;;;;;;;5063556;28;20043;-80
2023/03/09 04:56:03;;;;;;;6.85;3.67;;;;;;;;;;5097051;28;20032;-80
2023/03/09 04:58:36;;;;;;;8.88;4.22;;;;;;;;;;5097861;28;20058;-80
2023/03/09 05:01:05;;;;;;;9.25;3.85;;;;;;;;;;5075909;28;20060;-80
2023/03/09 05:03:38;;;;;;;7.55;3.97;;;;;;;;;;5080180;28;20040;-80
2023/03/09 05:06:07;;;;;;;9.30;4.75;;;;;;;;;;5081701;28;20114;-80
2023/03/09 05:08:40;;;;;;;8.70;4.47;;;;;;;;;;5078487;28;20118;-80
2023/03/09 05:11:08;;;;;;;7.78;4.13;;;;;;;;;;5083682;28;20547;-80
2023/03/09 05:13:38;;;;;;;11.82;4.07;;;;;;;;;;5082775;28;20242;-80
2023/03/09 05:16:10;;;;;;;8.90;3.80;;;;;;;;;;5097816;28;20155;-80
2023/03/09 05:18:42;;;;;;;11.23;4.47;;;;;;;;;;5074978;28;20056;-80
2023/03/09 05:21:41;;;;;;;8.30;3.80;;;;;;;;;;5086057;28;20024;-80
2023/03/09 05:24:16;;;;;;;8.15;4.00;;;;;;;;;;5069270;28;20196;-80
2023/03/09 05:26:44;;;;;;;11.68;4.10;;;;;;;;;;5102267;28;20047;-80
2023/03/09 05:29:18;;;;;;;13.38;4.93;;;;;;;;;;5067978;28;20048;-80
2023/03/09 05:32:12;;;;;;;8.27;4.38;;;;;;;;;;5071064;28;20122;-81
2023/03/09 05:34:45;;;;;;;8.70;4.57;;;;;;;;;;5101673;28;20538;-81
2023/03/09 05:37:14;;;;;;;8.80;4.30;;;;;;;;;;5065796;28;20210;-81
2023/03/09 05:40:14;;;;;;;10.82;4.32;;;;;;;;;;5085211;28;20640;-81
2023/03/09 05:42:46;;;;;;;8.32;4.13;;;;;;;;;;5084687;28;20621;-81
2023/03/09 05:45:15;;;;;;;9.93;4.38;;;;;;;;;;5081317;28;20071;-81
2023/03/09 05:47:48;;;;;;;11.23;4.78;;;;;;;;;;5066798;28;20063;-81
2023/03/09 05:50:19;;;;;;;8.25;4.18;;;;;;;;;;5083010;28;20051;-81
2023/03/09 05:52:52;;;;;;;9.95;4.38;;;;;;;;;;5099207;28;20035;-81
2023/03/09 05:55:22;;;;;;;7.68;4.07;;;;;;;;;;5084163;28;20158;-81
2023/03/09 05:58:17;;;;;;;11.38;4.68;;;;;;;;;;5067747;28;20036;-81
2023/03/09 06:01:28;;;;;;;10.05;4.20;;;;;;;;;;5089221;28;20036;-81
2023/03/09 06:04:24;;;;;;;9.13;4.50;;;;;;;;;;5101312;28;20051;-80
2023/03/09 06:06:56;;;;;;;10.48;4.00;;;;;;;;;;5084075;28;20044;-80
2023/03/09 06:09:30;;;;;;;12.52;4.88;;;;;;;;;;5083250;28;20202;-81
2023/03/09 06:12:00;;;;;;;9.45;4.25;;;;;;;;;;5080829;28;20110;-80
2023/03/09 06:14:28;;;;;;;8.13;4.38;;;;;;;;;;5081680;28;20680;-81
2023/03/09 06:17:01;;;;;;;8.65;4.53;;;;;;;;;;5082397;28;20071;-80
2023/03/09 06:19:28;;;;;;;10.02;4.80;;;;;;;;;;5081773;28;20040;-80
2023/03/09 06:22:00;;;;;;;11.90;4.75;;;;;;;;;;5082103;28;20038;-81
2023/03/09 06:24:35;;;;;;;13.68;4.57;;;;;;;;;;5083016;28;20098;-80
2023/03/09 06:27:04;;;;;;;12.07;4.75;;;;;;;;;;5080622;28;20040;-80
2023/03/09 06:29:34;;;;;;;11.98;4.25;;;;;;;;;;5082923;28;20044;-80
2023/03/09 06:32:33;;;;;;;11.18;5.00;;;;;;;;;;5098020;28;20039;-80
2023/03/09 06:35:26;;;;;;;11.85;5.35;;;;;;;;;;5083091;28;20487;-81
2023/03/09 06:38:01;;;;;;;10.70;5.03;;;;;;;;;;5081859;28;20036;-81
2023/03/09 06:40:29;;;;;;;10.25;5.03;;;;;;;;;;5086688;28;20062;-81
2023/03/09 06:42:56;;;;;;;10.55;4.78;;;;;;;;;;5081078;28;20031;-81
2023/03/09 06:45:50;;;;;;;11.77;4.70;;;;;;;;;;5099323;28;20135;-81
2023/03/09 06:49:09;;;;;;;9.95;4.45;;;;;;;;;;5096965;28;20162;-80
2023/03/09 06:51:38;;;;;;;12.88;5.50;;;;;;;;;;5081778;28;20485;-80
2023/03/09 06:54:06;;;;;;;12.60;5.20;;;;;;;;;;5065180;28;20036;-80
2023/03/09 06:56:38;;;;;;;12.60;5.53;;;;;;;;;;5089798;28;20046;-80
2023/03/09 06:59:06;;;;;;;11.48;5.75;;;;;;;;;;5084180;28;20511;-80
2023/03/09 07:01:38;;;;;;;12.60;4.68;;;;;;;;;;5099901;28;20039;-80
2023/03/09 07:04:07;;;;;;;12.18;5.38;;;;;;;;;;5063993;28;20054;-80
2023/03/09 07:06:34;;;;;;;11.95;5.20;;;;;;;;;;5080883;28;20579;-79
2023/03/09 07:09:03;;;;;;;8.63;4.13;;;;;;;;;;5081822;28;20048;-80
2023/03/09 07:14:25;;;;;;;12.45;4.43;;;;;;;;;;5096447;28;20043;-80
2023/03/09 07:16:58;;;;;;;11.93;5.57;;;;;;;;;;5100459;28;20032;-79
2023/03/09 07:19:26;;;;;;;13.25;4.97;;;;;;;;;;5082248;28;20559;-79
2023/03/09 07:21:59;;;;;;;13.60;3.97;;;;;;;;;;5097258;28;20038;-80
2023/03/09 07:25:16;;;;;;;13.85;4.60;;;;;;;;;;5099719;28;20711;-80
2023/03/09 07:27:46;;;;;;;13.05;5.45;;;;;;;;;;5096947;28;20040;-80
2023/03/09 07:30:15;;;;;;;13.27;5.45;;;;;;;;;;5099593;28;20415;-80
2023/03/09 07:32:46;;;;;;;10.77;4.80;;;;;;;;;;5087681;28;20044;-80
2023/03/09 07:35:14;;;;;;;10.73;5.65;;;;;;;;;;5092007;28;20039;-80
2023/03/09 07:37:42;;;;;;;12.07;5.57;;;;;;;;;;5094838;28;20970;-80
2023/03/09 07:40:12;;;;;;;11.90;5.25;;;;;;;;;;5064625;28;20051;-80
2023/03/09 07:42:46;;;;;;;12.07;5.20;;;;;;;;;;5098907;28;20027;-80
2023/03/09 07:45:21;;;;;;;15.50;5.53;;;;;;;;;;5079058;28;20032;-80
2023/03/09 07:47:49;;;;;;;15.35;4.75;;;;;;;;;;5096724;28;20592;-80
2023/03/09 07:50:17;;;;;;;10.98;4.78;;;;;;;;;;5098991;27;20039;-80
2023/03/09 07:52:47;;;;;;;11.10;5.65;;;;;;;;;;5077371;28;20050;-80
2023/03/09 07:55:15;;;;;;;12.88;5.03;;;;;;;;;;5097070;28;20081;-80
2023/03/09 07:57:43;;;;;;;11.75;4.90;;;;;;;;;;5097088;28;20122;-80
2023/03/09 08:00:13;;;;;;;14.95;5.38;;;;;;;;;;5099126;28;20625;-79
2023/03/09 08:02:41;;;;;;;15.18;6.25;;;;;;;;;;5077539;28;20039;-80
2023/03/09 08:05:15;;;;;;;11.50;5.38;;;;;;;;;;5099240;28;20036;-80
2023/03/09 08:07:42;;;;;;;10.20;5.20;;;;;;;;;;5079612;28;20941;-80
2023/03/09 08:10:11;;;;;;;12.57;4.65;;;;;;;;;;5097203;28;20086;-80
2023/03/09 08:12:38;;;;;;;11.30;5.30;;;;;;;;;;5097357;28;20050;-80
2023/03/09 08:15:10;;;;;;;12.45;4.93;;;;;;;;;;5077600;28;20552;-80
2023/03/09 08:17:39;;;;;;;11.45;4.82;;;;;;;;;;5079526;28;20044;-80
2023/03/09 08:20:36;;;;;;;13.60;5.18;;;;;;;;;;5098515;28;20030;-80
2023/03/09 08:23:09;;;;;;;10.02;5.07;;;;;;;;;;5097381;28;20067;-80
2023/03/09 08:25:41;;;;;;;11.23;5.05;;;;;;;;;;5079964;28;20044;-80
2023/03/09 08:28:09;;;;;;;12.35;5.32;;;;;;;;;;5097607;28;20047;-80
2023/03/09 08:31:00;;;;;;;12.60;5.53;;;;;;;;;;5065905;28;20061;-80
2023/03/09 08:33:28;;;;;;;13.48;5.45;;;;;;;;;;5097389;28;20028;-80
2023/03/09 08:36:11;;;;;;;18.98;5.18;;;;;;;;;;5096799;28;20154;-80
2023/03/09 08:38:42;;;;;;;13.77;5.82;;;;;;;;;;5097851;28;20039;-80
2023/03/09 08:41:09;;;;;;;16.38;5.93;;;;;;;;;;5095320;28;20055;-80
2023/03/09 08:43:36;;;;;;;11.30;4.90;;;;;;;;;;5098971;28;20040;-80
2023/03/09 08:46:05;;;;;;;12.10;4.72;;;;;;;;;;5097172;28;20042;-80
2023/03/09 08:48:32;;;;;;;12.00;4.80;;;;;;;;;;5100451;28;20043;-80
2023/03/09 08:51:28;;;;;;;12.88;5.22;;;;;;;;;;5098877;28;20126;-79
2023/03/09 08:54:00;;;;;;;10.93;4.55;;;;;;;;;;5099935;28;20061;-80
2023/03/09 08:56:28;;;;;;;11.43;5.10;;;;;;;;;;5090361;28;20559;-80
2023/03/09 08:58:56;;;;;;;11.40;4.80;;;;;;;;;;5099934;28;20061;-80
2023/03/09 09:01:24;;;;;;;9.27;4.53;;;;;;;;;;5100257;28;20031;-79
2023/03/09 09:03:53;;;;;;;11.38;4.78;;;;;;;;;;5102300;28;20127;-80
2023/03/09 09:06:20;;;;;;;11.30;4.45;;;;;;;;;;5099651;28;20437;-80
2023/03/09 09:08:48;;;;;;;10.27;5.35;;;;;;;;;;5098538;28;20044;-80
2023/03/09 09:11:16;;;;;;;16.73;4.65;;;;;;;;;;5068865;28;20122;-80
2023/03/09 09:13:44;;;;;;;9.63;4.38;;;;;;;;;;5082234;28;20403;-80
2023/03/09 09:16:13;;;;;;;9.13;4.32;;;;;;;;;;5082440;28;20063;-80
2023/03/09 09:18:41;;;;;;;12.07;4.38;;;;;;;;;;5102424;28;20040;-80
2023/03/09 09:21:13;;;;;;;8.63;4.13;;;;;;;;;;5084549;28;20155;-80
2023/03/09 09:23:42;;;;;;;8.13;4.15;;;;;;;;;;5101790;28;20042;-80
2023/03/09 09:26:14;;;;;;;9.18;4.28;;;;;;;;;;5099130;28;20477;-80
2023/03/09 09:28:44;;;;;;;10.10;4.50;;;;;;;;;;5100545;28;20108;-80
2023/03/09 09:31:19;;;;;;;14.80;3.38;;;;;;;;;;5066570;28;20045;-80
2023/03/09 09:33:51;;;;;;;8.73;4.43;;;;;;;;;;5083154;28;20028;-80
2023/03/09 09:36:19;;;;;;;10.25;4.45;;;;;;;;;;5101316;28;20130;-80
2023/03/09 09:38:47;;;;;;;7.82;3.95;;;;;;;;;;5099381;28;20047;-80
2023/03/09 09:41:23;;;;;;;10.52;4.43;;;;;;;;;;5100651;28;20043;-80
2023/03/09 09:43:54;;;;;;;11.90;4.65;;;;;;;;;;5101887;28;20040;-81
2023/03/09 09:46:23;;;;;;;10.38;4.45;;;;;;;;;;5100362;28;20466;-81
2023/03/09 09:48:57;;;;;;;8.65;3.88;;;;;;;;;;5102775;28;20055;-81
2023/03/09 09:51:43;;;;;;;5.60;2.83;;;;;;;;;;5101635;28;20055;-81
2023/03/09 09:54:47;;;;;;;7.28;3.47;;;;;;;;;;5101553;28;20124;-81
2023/03/09 09:57:27;;;;;;;10.68;4.38;;;;;;;;;;5098327;27;20194;-81
2023/03/09 10:00:05;;;;;;;10.13;4.53;;;;;;;;;;5100195;28;20071;-81
2023/03/09 10:03:28;;;;;;;9.43;4.10;;;;;;;;;;5100454;28;20035;-81
2023/03/09 10:06:21;;;;;;;7.90;3.80;;;;;;;;;;5090061;28;20073;-81
2023/03/09 10:08:55;;;;;;;6.22;3.15;;;;;;;;;;5099532;28;20051;-81
2023/03/09 10:11:31;;;;;;;7.53;3.67;;;;;;;;;;5084284;28;20109;-81
2023/03/09 10:14:32;;;;;;;10.50;4.25;;;;;;;;;;5100945;28;20032;-81
2023/03/09 10:17:18;;;;;;;9.98;4.13;;;;;;;;;;5097936;28;20510;-81
2023/03/09 10:19:48;;;;;;;9.25;4.78;;;;;;;;;;5084722;28;21741;-81
2023/03/09 10:22:22;;;;;;;8.85;4.32;;;;;;;;;;5082722;28;20549;-81
2023/03/09 10:24:52;;;;;;;7.43;4.00;;;;;;;;;;5100015;28;20043;-81
2023/03/09 10:27:43;;;;;;;10.30;4.60;;;;;;;;;;5100904;28;20036;-81
2023/03/09 10:30:13;;;;;;;7.55;4.13;;;;;;;;;;5099940;27;20061;-81
2023/03/09 10:32:40;;;;;;;9.23;4.32;;;;;;;;;;5087538;28;20040;-81
2023/03/09 10:35:22;;;;;;;11.15;3.75;;;;;;;;;;5079760;28;20048;-81
2023/03/09 10:37:51;;;;;;;9.00;3.95;;;;;;;;;;5099879;28;20530;-81
2023/03/09 10:40:22;;;;;;;7.60;3.90;;;;;;;;;;5100779;28;20051;-81
2023/03/09 10:42:51;;;;;;;7.93;4.18;;;;;;;;;;5099749;28;20043;-81
2023/03/09 10:45:42;;;;;;;7.88;3.65;;;;;;;;;;5099236;28;20038;-81
2023/03/09 10:48:34;;;;;;;9.65;3.97;;;;;;;;;;5096576;28;20605;-81
2023/03/09 10:51:04;;;;;;;7.93;4.18;;;;;;;;;;5082162;28;20043;-81
2023/03/09 10:53:37;;;;;;;10.73;4.63;;;;;;;;;;5081837;28;20459;-81
2023/03/09 10:56:22;;;;;;;12.73;4.55;;;;;;;;;;5082345;28;20581;-81
2023/03/09 10:59:03;;;;;;;7.82;3.90;;;;;;;;;;5100231;28;20043;-82
2023/03/09 11:01:42;;;;;;;7.47;3.88;;;;;;;;;;5100453;28;20039;-81
2023/03/09 11:04:34;;;;;;;10.02;4.55;;;;;;;;;;5080382;28;20050;-81
2023/03/09 11:07:18;;;;;;;8.02;4.20;;;;;;;;;;5080416;28;20055;-81
2023/03/09 11:09:48;;;;;;;9.05;4.38;;;;;;;;;;5083436;28;20035;-81
2023/03/09 11:12:36;;;;;;;5.85;3.05;;;;;;;;;;5079244;28;20050;-81
2023/03/09 11:15:30;;;;;;;6.95;3.67;;;;;;;;;;5067227;28;20035;-81
2023/03/09 11:18:00;;;;;;;8.45;3.72;;;;;;;;;;5072229;28;20047;-81
2023/03/09 11:20:51;;;;;;;8.18;3.97;;;;;;;;;;5085137;28;20090;-81
2023/03/09 11:23:27;;;;;;;6.15;3.03;;;;;;;;;;5095062;28;20043;-81
2023/03/09 11:26:07;;;;;;;7.63;3.72;;;;;;;;;;5098904;28;20052;-81
2023/03/09 11:29:10;;;;;;;6.88;3.58;;;;;;;;;;5080108;28;20038;-81
2023/03/09 11:31:41;;;;;;;8.27;4.07;;;;;;;;;;5097863;28;20455;-81
2023/03/09 11:34:27;;;;;;;10.23;4.60;;;;;;;;;;5100184;28;20048;-82
2023/03/09 11:37:18;;;;;;;8.95;3.58;;;;;;;;;;5082213;28;20034;-82
2023/03/09 11:40:06;;;;;;;8.95;3.80;;;;;;;;;;5084014;28;20067;-81
2023/03/09 11:42:45;;;;;;;8.70;4.47;;;;;;;;;;5079834;28;20048;-82
2023/03/09 11:45:41;;;;;;;7.95;3.83;;;;;;;;;;5085606;28;20123;-81
2023/03/09 11:48:26;;;;;;;7.32;3.85;;;;;;;;;;5077149;28;20043;-81
2023/03/09 11:51:01;;;;;;;8.07;3.85;;;;;;;;;;5096625;28;20532;-81
2023/03/09 11:53:43;;;;;;;5.85;2.80;;;;;;;;;;5099529;28;20028;-81
2023/03/09 11:56:47;;;;;;;5.97;2.88;;;;;;;;;;5097643;28;20064;-82
2023/03/09 11:59:24;;;;;;;6.35;2.75;;;;;;;;;;5089348;28;20047;-82
2023/03/09 12:01:56;;;;;;;6.88;3.58;;;;;;;;;;5099091;28;20134;-82
2023/03/09 12:04:24;;;;;;;7.10;3.97;;;;;;;;;;5096807;28;20056;-81
2023/03/09 12:06:54;;;;;;;7.88;3.60;;;;;;;;;;5079401;28;20051;-82
2023/03/09 12:09:25;;;;;;;11.63;4.50;;;;;;;;;;5099022;28;20130;-82
2023/03/09 12:12:29;;;;;;;5.95;2.53;;;;;;;;;;5081292;28;20130;-81
2023/03/09 12:15:06;;;;;;;8.00;3.70;;;;;;;;;;5097377;28;20034;-82
2023/03/09 12:17:52;;;;;;;8.07;3.53;;;;;;;;;;5071070;28;20036;-82
2023/03/09 12:20:27;;;;;;;7.55;3.75;;;;;;;;;;5097098;28;20725;-81
2023/03/09 12:23:36;;;;;;;7.60;3.60;;;;;;;;;;5099792;28;20024;-82
2023/03/09 12:26:14;;;;;;;11.48;4.15;;;;;;;;;;5096349;28;20048;-82
2023/03/09 12:28:47;;;;;;;5.82;3.25;;;;;;;;;;5098736;28;20043;-82
2023/03/09 12:31:34;;;;;;;7.20;3.60;;;;;;;;;;5096329;28;20047;-81
2023/03/09 12:34:09;;;;;;;6.80;3.80;;;;;;;;;;5095035;28;20036;-81
2023/03/09 12:36:42;;;;;;;6.65;3.47;;;;;;;;;;5099453;28;20036;-81
2023/03/09 12:39:33;;;;;;;6.65;3.67;;;;;;;;;;5080686;28;20658;-81
2023/03/09 12:42:28;;;;;;;10.60;3.45;;;;;;;;;;5062562;28;20052;-81
2023/03/09 12:45:21;;;;;;;9.95;3.80;;;;;;;;;;5075119;28;20487;-81
2023/03/09 12:47:57;;;;;;;12.13;4.03;;;;;;;;;;5075940;28;20043;-81
2023/03/09 12:51:04;;;;;;;7.18;3.70;;;;;;;;;;5078882;28;20040;-81
2023/03/09 12:53:57;;;;;;;7.78;3.60;;;;;;;;;;5060543;28;20785;-81
2023/03/09 12:56:26;;;;;;;9.40;4.13;;;;;;;;;;5075533;28;20039;-81
2023/03/09 12:58:56;;;;;;;9.25;3.63;;;;;;;;;;5075421;28;20040;-82
2023/03/09 13:01:24;;;;;;;7.78;3.60;;;;;;;;;;5042474;28;20032;-81
2023/03/09 13:04:12;;;;;;;7.32;3.40;;;;;;;;;;5075297;28;20121;-81
2023/03/09 13:06:50;;;;;;;9.93;3.60;;;;;;;;;;5077762;28;20134;-82
2023/03/09 13:09:36;;;;;;;7.75;3.50;;;;;;;;;;5061930;28;20415;-81
2023/03/09 13:12:18;;;;;;;8.40;3.55;;;;;;;;;;5065132;28;20071;-82
2023/03/09 13:14:49;;;;;;;6.75;3.70;;;;;;;;;;5077404;28;20032;-82
2023/03/09 13:17:34;;;;;;;6.38;3.60;;;;;;;;;;5060317;28;20446;-82
2023/03/09 13:20:17;;;;;;;6.70;3.33;;;;;;;;;;5059043;28;21106;-81
2023/03/09 13:22:50;;;;;;;9.20;3.85;;;;;;;;;;5065180;28;20502;-81
2023/03/09 13:25:41;;;;;;;8.43;3.53;;;;;;;;;;5062015;28;20041;-81
2023/03/09 13:28:33;;;;;;;6.18;3.13;;;;;;;;;;5077997;28;20052;-81
2023/03/09 13:31:26;;;;;;;7.00;3.30;;;;;;;;;;5075944;28;20058;-81
2023/03/09 13:33:55;;;;;;;8.38;4.13;;;;;;;;;;5053542;28;20362;-82
2023/03/09 13:36:25;;;;;;;7.50;3.45;;;;;;;;;;5080659;28;20045;-81
2023/03/09 13:38:55;;;;;;;9.13;4.38;;;;;;;;;;5077605;28;20090;-82
2023/03/09 13:41:28;;;;;;;7.00;3.63;;;;;;;;;;5079608;28;20036;-81
2023/03/09 13:44:00;;;;;;;8.32;4.07;;;;;;;;;;5051714;28;20691;-81
2023/03/09 13:46:34;;;;;;;6.05;3.45;;;;;;;;;;5080993;28;20094;-82
2023/03/09 13:49:07;;;;;;;6.53;3.58;;;;;;;;;;5064008;28;20032;-81
2023/03/09 13:51:39;;;;;;;8.48;3.95;;;;;;;;;;5078640;28;20044;-81
2023/03/09 13:54:19;;;;;;;7.13;3.28;;;;;;;;;;5070109;28;20036;-81
2023/03/09 13:57:19;;;;;;;6.82;3.17;;;;;;;;;;5080575;28;20085;-81
2023/03/09 13:59:46;;;;;;;7.10;3.40;;;;;;;;;;5080053;28;20040;-80
2023/03/09 14:02:14;;;;;;;10.13;3.70;;;;;;;;;;5078659;28;20037;-80
2023/03/09 14:04:46;;;;;;;6.10;3.40;;;;;;;;;;5078235;28;20077;-80
2023/03/09 14:07:19;;;;;;;7.75;3.33;;;;;;;;;;5078921;28;20036;-81
2023/03/09 14:09:55;;;;;;;8.98;3.10;;;;;;;;;;5077477;28;20036;-82
2023/03/09 14:12:37;;;;;;;7.20;3.75;;;;;;;;;;5046987;28;20050;-81
2023/03/09 14:15:15;;;;;;;7.88;3.38;;;;;;;;;;5063289;28;20043;-81
2023/03/09 14:17:42;;;;;;;6.25;3.38;;;;;;;;;;5077118;28;20033;-81
2023/03/09 14:20:18;;;;;;;6.18;3.50;;;;;;;;;;5078071;28;20068;-81
2023/03/09 14:22:46;;;;;;;6.65;3.40;;;;;;;;;;5068990;28;20051;-81
2023/03/09 14:25:24;;;;;;;7.63;4.05;;;;;;;;;;5080801;28;20037;-81
2023/03/09 14:28:28;;;;;;;10.38;3.42;;;;;;;;;;5078371;28;20040;-82
2023/03/09 14:31:16;;;;;;;6.05;3.60;;;;;;;;;;5080160;28;20043;-81
2023/03/09 14:33:59;;;;;;;6.72;3.60;;;;;;;;;;5079376;28;20039;-81
2023/03/09 14:36:34;;;;;;;13.48;5.15;;;;;;;;;;5053416;28;20044;-81
2023/03/09 14:39:19;;;;;;;13.52;5.35;;;;;;;;;;5068670;28;20135;-81
2023/03/09 14:42:15;;;;;;;7.63;3.90;;;;;;;;;;5081163;28;20036;-81
2023/03/09 14:44:45;;;;;;;5.97;3.53;;;;;;;;;;5062456;28;20452;-81
2023/03/09 14:47:18;;;;;;;6.22;3.53;;;;;;;;;;5058893;28;20527;-81
2023/03/09 14:49:52;;;;;;;6.43;3.55;;;;;;;;;;5062638;28;20051;-81
2023/03/09 14:52:22;;;;;;;7.32;3.70;;;;;;;;;;5079294;28;20036;-81
2023/03/09 14:54:52;;;;;;;6.47;3.20;;;;;;;;;;5064745;28;20040;-81
2023/03/09 14:57:44;;;;;;;5.97;3.20;;;;;;;;;;5078851;28;20116;-81
2023/03/09 15:00:21;;;;;;;7.40;3.40;;;;;;;;;;5063860;28;20476;-81
2023/03/09 15:02:49;;;;;;;6.43;3.35;;;;;;;;;;5030226;28;20045;-82
2023/03/09 15:05:24;;;;;;;5.75;3.25;;;;;;;;;;5061659;28;20123;-81
2023/03/09 15:07:52;;;;;;;7.25;3.28;;;;;;;;;;5064098;28;20407;-81
2023/03/09 15:10:21;;;;;;;8.55;4.00;;;;;;;;;;5078868;28;20036;-81
2023/03/09 15:12:49;;;;;;;7.03;3.08;;;;;;;;;;5062525;28;20093;-81
2023/03/09 15:15:20;;;;;;;7.50;3.42;;;;;;;;;;5079834;28;20455;-81
2023/03/09 15:17:55;;;;;;;6.47;3.13;;;;;;;;;;5048262;28;20043;-81
2023/03/09 15:20:24;;;;;;;11.45;4.15;;;;;;;;;;5077285;28;20037;-81
2023/03/09 15:23:10;;;;;;;7.00;3.55;;;;;;;;;;5079628;28;20047;-81
2023/03/09 15:25:41;;;;;;;6.82;3.72;;;;;;;;;;5062086;28;20032;-81
2023/03/09 15:28:08;;;;;;;8.20;3.38;;;;;;;;;;5051348;28;20504;-81
2023/03/09 15:30:37;;;;;;;7.65;3.50;;;;;;;;;;5079074;28;20109;-82
2023/03/09 15:33:04;;;;;;;5.97;3.28;;;;;;;;;;5061151;28;20090;-81
2023/03/09 15:35:40;;;;;;;7.55;3.33;;;;;;;;;;5061722;28;20491;-81
2023/03/09 15:38:08;;;;;;;6.97;3.53;;;;;;;;;;5078223;28;20135;-81
2023/03/09 15:40:40;;;;;;;6.50;3.15;;;;;;;;;;5080484;28;20039;-81